Time;durP1;ratioP1;P1;durP2;ratioP2;P2;SDS_P1;SDS_P2;PMS_P1;PMS_P2;Temp;Humidity;BMP_temperature;BMP_pressure;BME280_temperature;BME280_humidity;BME280_pressure;Samples;Min_cycle;Max_cycle;Signal;HPM_P1;HPM_P2
2022/08/22 00:00:15;;;;;;;379.15;299.05;;;;;;;22.95;88.66;98722.03;307165;32;2622;-78
2022/08/22 00:00:28;;;;;;;381.02;299.85;;;;;;;22.94;88.81;98723.03;307548;31;2813;-78
2022/08/22 00:01:10;;;;;;;383.45;298.45;;;;;;;22.94;88.79;98720.38;305099;32;2889;-77
2022/08/22 00:01:29;;;;;;;378.00;297.10;;;;;;;22.94;88.52;98726.53;306602;32;3521;-77
2022/08/22 00:02:00;;;;;;;379.95;301.33;;;;;;;22.93;88.53;98722.19;303116;32;2650;-77
2022/08/22 00:02:26;;;;;;;378.45;299.23;;;;;;;22.94;88.33;98729.19;297814;32;2968;-77
2022/08/22 00:02:54;;;;;;;379.42;306.35;;;;;;;22.94;88.55;98725.69;298456;32;4236;-77
2022/08/22 00:03:14;;;;;;;383.17;305.00;;;;;;;22.95;88.31;98732.72;299584;32;3891;-78
2022/08/22 00:03:27;;;;;;;382.60;303.33;;;;;;;22.95;88.15;98727.38;298756;32;4772;-78
2022/08/22 00:04:32;;;;;;;380.63;303.08;;;;;;;22.92;88.52;98720.53;298571;33;4792;-78
2022/08/22 00:05:05;;;;;;;383.27;302.63;;;;;;;22.89;88.40;98727.03;289528;33;6327;-77
2022/08/22 00:05:31;;;;;;;376.45;297.95;;;;;;;22.87;88.38;98721.00;288316;34;1559;-77
2022/08/22 00:05:50;;;;;;;382.35;303.52;;;;;;;22.88;88.67;98730.69;283535;34;6207;-77
2022/08/22 00:06:16;;;;;;;381.58;298.90;;;;;;;22.88;88.67;98721.84;281047;35;1499;-77
2022/08/22 00:06:39;;;;;;;378.63;300.08;;;;;;;22.86;88.08;98730.00;274580;35;5941;-78
2022/08/22 00:08:44;;;;;;;365.57;274.23;;;;;;;22.86;88.36;98730.00;2500147;27;20493;-77
2022/08/22 00:09:16;;;;;;;388.38;325.60;;;;;;;22.86;88.08;98731.84;351847;28;1356;-78
2022/08/22 00:09:34;;;;;;;381.13;314.38;;;;;;;22.85;88.11;98732.84;350321;28;1428;-78
2022/08/22 00:09:54;;;;;;;385.02;324.25;;;;;;;22.84;87.83;98729.34;349468;28;971;-78
2022/08/22 00:10:15;;;;;;;378.15;304.02;;;;;;;22.83;87.74;98734.84;346380;28;939;-78
2022/08/22 00:10:34;;;;;;;375.83;298.50;;;;;;;22.82;87.65;98739.34;347562;28;903;-78
2022/08/22 00:10:56;;;;;;;381.08;304.00;;;;;;;22.81;87.49;98735.00;346118;28;1394;-78
2022/08/22 00:11:28;;;;;;;387.58;319.30;;;;;;;22.78;87.46;98734.44;344956;28;1280;-78
2022/08/22 00:11:49;;;;;;;383.08;308.30;;;;;;;22.80;87.56;98733.31;344869;28;1240;-78
2022/08/22 00:12:38;;;;;;;386.25;304.38;;;;;;;22.81;87.10;98727.00;343810;28;1135;-78
2022/08/22 00:13:04;;;;;;;380.45;295.67;;;;;;;22.82;87.04;98734.00;347408;28;1175;-78
2022/08/22 00:14:02;;;;;;;382.27;303.48;;;;;;;22.80;87.10;98736.00;343421;28;1286;-78
2022/08/22 00:14:35;;;;;;;382.88;310.33;;;;;;;22.81;86.97;98732.31;338366;28;1204;-78
2022/08/22 00:14:52;;;;;;;383.17;317.85;;;;;;;22.80;87.27;98741.34;335422;29;1372;-78
2022/08/22 00:15:13;;;;;;;383.10;308.40;;;;;;;22.80;87.45;98732.50;337787;29;1345;-78
2022/08/22 00:15:27;;;;;;;387.38;323.90;;;;;;;22.80;87.57;98737.81;338188;29;1006;-78
2022/08/22 00:15:42;;;;;;;390.70;338.80;;;;;;;22.80;87.78;98737.81;337786;29;1292;-78
2022/08/22 00:16:14;;;;;;;387.00;333.10;;;;;;;22.79;87.53;98737.00;336461;29;873;-78
2022/08/22 00:16:47;;;;;;;385.45;313.15;;;;;;;22.80;87.42;98744.00;335750;29;1511;-78
2022/08/22 00:17:23;;;;;;;382.25;312.38;;;;;;;22.79;88.00;98742.31;336022;29;1792;-77
2022/08/22 00:17:48;;;;;;;380.08;309.08;;;;;;;22.80;88.57;98736.00;335255;29;1648;-77
2022/08/22 00:18:10;;;;;;;389.13;326.00;;;;;;;22.81;88.30;98742.16;331859;29;906;-78
2022/08/22 00:18:43;;;;;;;377.88;300.83;;;;;;;22.81;88.03;98737.66;332049;29;1389;-78
2022/08/22 00:19:17;;;;;;;383.55;318.58;;;;;;;22.81;88.44;98739.50;326455;30;1946;-78
2022/08/22 00:19:32;;;;;;;380.80;298.25;;;;;;;22.79;88.51;98742.31;324524;30;890;-78
2022/08/22 00:19:59;;;;;;;376.08;292.95;;;;;;;22.78;88.48;98743.31;327112;30;927;-78
2022/08/22 00:20:16;;;;;;;383.20;310.42;;;;;;;22.78;88.39;98739.78;325291;30;1575;-78
2022/08/22 00:20:35;;;;;;;386.80;322.30;;;;;;;22.77;88.51;98738.94;320663;30;1365;-78
2022/08/22 00:20:54;;;;;;;383.80;313.30;;;;;;;22.78;88.29;98743.31;318005;30;2269;-78
2022/08/22 00:21:20;;;;;;;384.83;315.83;;;;;;;22.77;88.61;98744.28;315605;30;2452;-78
2022/08/22 00:21:38;;;;;;;383.38;318.63;;;;;;;22.78;88.25;98743.31;318153;30;2717;-78
2022/08/22 00:22:12;;;;;;;385.27;311.63;;;;;;;22.77;88.53;98741.63;315014;31;1885;-78
2022/08/22 00:22:39;;;;;;;379.75;303.00;;;;;;;22.78;88.57;98740.66;309212;31;2131;-78
2022/08/22 00:23:10;;;;;;;380.58;300.40;;;;;;;22.78;88.21;98751.31;306636;31;2787;-78
2022/08/22 00:23:27;;;;;;;382.23;314.40;;;;;;;22.77;88.70;98746.94;306044;32;3737;-78
2022/08/22 00:23:44;;;;;;;384.58;312.67;;;;;;;22.78;88.46;98753.13;306071;31;3358;-78
2022/08/22 00:24:06;;;;;;;387.58;322.55;;;;;;;22.76;88.56;98750.63;300114;32;880;-78
2022/08/22 00:24:50;;;;;;;382.55;310.58;;;;;;;22.79;88.71;98749.50;295013;33;2187;-77
2022/08/22 00:25:19;;;;;;;378.65;301.50;;;;;;;22.80;88.79;98745.81;291831;33;3844;-77
2022/08/22 00:26:05;;;;;;;387.00;328.98;;;;;;;22.79;88.59;98749.50;295623;33;5162;-78
2022/08/22 00:26:30;;;;;;;380.13;299.55;;;;;;;22.77;88.65;98746.94;294570;33;3815;-78
2022/08/22 00:26:58;;;;;;;383.50;314.15;;;;;;;22.76;88.88;98747.13;295842;33;4273;-78
2022/08/22 00:27:17;;;;;;;389.35;322.80;;;;;;;22.75;88.37;98754.28;291975;33;5147;-77
2022/08/22 00:27:33;;;;;;;384.23;309.80;;;;;;;22.74;88.87;98747.28;290596;34;1612;-77
2022/08/22 00:27:54;;;;;;;389.77;322.77;;;;;;;22.73;88.71;98750.09;287525;34;1022;-78
2022/08/22 00:28:31;;;;;;;391.30;331.08;;;;;;;22.74;88.59;98747.28;284807;34;5971;-78
2022/08/22 00:28:48;;;;;;;382.75;304.30;;;;;;;22.74;88.57;98738.44;283692;34;908;-77
2022/08/22 00:29:04;;;;;;;387.20;322.73;;;;;;;22.74;88.66;98741.09;279176;35;1357;-77
2022/08/22 00:29:18;;;;;;;384.52;315.27;;;;;;;22.73;88.98;98742.94;275569;35;7381;-77
2022/08/22 00:29:38;;;;;;;382.17;306.23;;;;;;;22.75;89.03;98748.94;273962;36;1006;-77
2022/08/22 00:29:56;;;;;;;380.48;305.58;;;;;;;22.74;88.90;98741.09;266466;36;10426;-77
2022/08/22 00:30:11;;;;;;;385.23;315.40;;;;;;;22.74;89.28;98741.94;261701;37;10415;-78
2022/08/22 00:30:22;;;;;;;387.73;322.85;;;;;;;22.72;89.11;98738.59;260180;37;8303;-78
2022/08/22 00:32:27;;;;;;;376.76;307.77;;;;;;;22.68;89.18;98741.75;2496538;27;20277;-77
2022/08/22 00:32:58;;;;;;;388.48;329.23;;;;;;;22.67;89.21;98746.25;353093;28;990;-77
2022/08/22 00:33:23;;;;;;;381.67;315.58;;;;;;;22.65;88.96;98737.56;347505;28;897;-77
2022/08/22 00:33:40;;;;;;;384.02;330.80;;;;;;;22.68;89.01;98736.41;345821;28;848;-78
2022/08/22 00:34:06;;;;;;;385.35;320.90;;;;;;;22.68;89.18;98747.91;347489;28;1260;-78
2022/08/22 00:34:22;;;;;;;387.15;333.33;;;;;;;22.68;89.24;98739.91;344682;28;974;-79
2022/08/22 00:34:39;;;;;;;387.83;329.55;;;;;;;22.69;88.82;98738.91;347364;28;1318;-79
2022/08/22 00:34:55;;;;;;;387.27;325.52;;;;;;;22.68;88.99;98745.25;348831;28;1418;-77
2022/08/22 00:35:20;;;;;;;384.25;315.80;;;;;;;22.68;88.86;98737.25;351334;28;1297;-77
2022/08/22 00:35:39;;;;;;;381.92;324.10;;;;;;;22.68;89.07;98733.75;349046;28;857;-77
2022/08/22 00:35:52;;;;;;;384.52;320.88;;;;;;;22.68;88.90;98741.75;345775;28;2733;-77
2022/08/22 00:36:26;;;;;;;391.48;332.77;;;;;;;22.68;89.02;98737.25;348751;28;1453;-77
2022/08/22 00:36:50;;;;;;;385.02;323.85;;;;;;;22.69;89.10;98743.41;343227;28;1321;-77
2022/08/22 00:37:16;;;;;;;387.85;333.15;;;;;;;22.69;89.05;98738.91;339338;29;1281;-77
2022/08/22 00:37:33;;;;;;;385.50;317.63;;;;;;;22.70;88.87;98745.09;338104;29;1403;-77
2022/08/22 00:37:58;;;;;;;387.10;314.85;;;;;;;22.69;88.85;98728.25;341711;28;1324;-77
2022/08/22 00:38:25;;;;;;;389.80;322.33;;;;;;;22.68;89.25;98737.25;346173;28;1550;-77
2022/08/22 00:38:40;;;;;;;387.85;321.70;;;;;;;22.67;89.19;98742.75;347551;28;912;-78
2022/08/22 00:38:56;;;;;;;389.23;329.27;;;;;;;22.67;89.05;98740.06;343430;28;1313;-78
2022/08/22 00:39:14;;;;;;;383.58;310.52;;;;;;;22.69;88.76;98732.75;341014;28;1030;-79
2022/08/22 00:40:07;;;;;;;384.85;308.63;;;;;;;22.67;89.21;98734.75;342253;28;888;-79
2022/08/22 00:40:52;;;;;;;384.25;319.02;;;;;;;22.69;88.64;98733.59;337208;29;1272;-78
2022/08/22 00:41:16;;;;;;;383.73;323.98;;;;;;;22.69;88.92;98741.59;341307;28;1318;-78
2022/08/22 00:41:53;;;;;;;388.83;336.75;;;;;;;22.69;89.29;98738.09;336845;29;846;-78
2022/08/22 00:42:22;;;;;;;381.30;315.95;;;;;;;22.71;88.92;98731.59;336707;29;1541;-78
2022/08/22 00:42:43;;;;;;;383.67;324.38;;;;;;;22.72;88.98;98732.44;338077;29;1731;-78
2022/08/22 00:43:07;;;;;;;379.83;305.80;;;;;;;22.70;88.98;98729.91;334525;29;938;-78
2022/08/22 00:43:26;;;;;;;383.45;319.45;;;;;;;22.69;89.38;98728.25;329703;29;1746;-78
2022/08/22 00:43:42;;;;;;;387.67;324.23;;;;;;;22.70;89.13;98734.41;330914;29;1355;-78
2022/08/22 00:43:58;;;;;;;381.83;310.70;;;;;;;22.71;88.94;98734.25;330128;29;1974;-78
2022/08/22 00:44:34;;;;;;;381.83;309.17;;;;;;;22.70;88.78;98740.59;327773;30;1278;-78
2022/08/22 00:45:03;;;;;;;386.20;320.02;;;;;;;22.68;88.75;98729.25;325584;30;2017;-78
2022/08/22 00:45:32;;;;;;;383.17;319.27;;;;;;;22.68;88.73;98733.75;322901;30;2581;-79
2022/08/22 00:45:42;;;;;;;383.30;321.23;;;;;;;22.67;89.28;98743.56;320874;30;2059;-79
2022/08/22 00:45:58;;;;;;;375.67;304.30;;;;;;;22.66;89.10;98730.41;320849;30;1403;-78
2022/08/22 00:46:18;;;;;;;379.67;311.85;;;;;;;22.64;89.34;98730.56;317581;31;956;-78
2022/08/22 00:47:01;;;;;;;388.58;326.27;;;;;;;22.63;89.25;98736.88;310900;31;2405;-78
2022/08/22 00:47:30;;;;;;;384.65;321.15;;;;;;;22.64;89.41;98735.88;306499;32;915;-77
2022/08/22 00:48:03;;;;;;;383.83;310.20;;;;;;;22.62;89.33;98737.88;304218;32;977;-77
2022/08/22 00:48:40;;;;;;;388.17;327.08;;;;;;;22.59;88.98;98732.88;305594;32;1988;-77
2022/08/22 00:49:01;;;;;;;386.10;324.15;;;;;;;22.60;89.25;98734.53;302871;32;4186;-78
2022/08/22 00:49:45;;;;;;;390.88;339.33;;;;;;;22.63;88.87;98733.38;304225;32;1478;-79
2022/08/22 00:50:05;;;;;;;389.30;323.02;;;;;;;22.64;88.91;98730.56;298047;33;1332;-78
2022/08/22 00:50:37;;;;;;;382.92;313.75;;;;;;;22.64;89.23;98743.91;295946;33;3085;-78
2022/08/22 00:50:57;;;;;;;387.02;321.65;;;;;;;22.65;88.84;98737.56;299328;32;4420;-78
2022/08/22 00:51:39;;;;;;;386.27;325.00;;;;;;;22.65;88.72;98737.56;296025;32;5880;-77
2022/08/22 00:52:03;;;;;;;383.35;321.00;;;;;;;22.66;88.93;98728.56;294770;33;7839;-78
2022/08/22 00:52:34;;;;;;;388.63;327.85;;;;;;;22.67;88.85;98734.75;290906;33;6054;-77
2022/08/22 00:52:53;;;;;;;385.20;331.70;;;;;;;22.67;89.15;98729.41;288569;34;5021;-77
2022/08/22 00:53:37;;;;;;;384.45;318.08;;;;;;;22.68;88.86;98734.56;285173;34;6712;-77
2022/08/22 00:55:55;;;;;;;373.85;284.87;;;;;;;22.65;88.79;98736.72;2494801;27;20262;-78
2022/08/22 00:56:55;;;;;;;384.08;314.15;;;;;;;22.66;88.32;98739.25;353409;28;966;-78
2022/08/22 00:57:11;;;;;;;384.15;322.88;;;;;;;22.66;88.10;98731.22;345973;28;1264;-78
2022/08/22 00:57:32;;;;;;;384.00;313.75;;;;;;;22.65;88.48;98737.56;346728;28;1248;-79
2022/08/22 00:58:16;;;;;;;390.05;326.38;;;;;;;22.64;88.21;98730.56;344016;28;1179;-78
2022/08/22 00:59:03;;;;;;;385.35;326.40;;;;;;;22.64;87.80;98735.88;343344;28;1438;-78
2022/08/22 00:59:38;;;;;;;384.30;307.52;;;;;;;22.65;87.98;98742.91;343329;28;1457;-78
2022/08/22 00:59:48;;;;;;;383.38;317.48;;;;;;;22.65;88.07;98737.56;342016;28;1118;-77
2022/08/22 00:59:58;;;;;;;384.77;310.92;;;;;;;22.65;87.53;98742.91;343386;28;1202;-77
2022/08/22 01:00:12;;;;;;;385.17;311.33;;;;;;;22.66;87.61;98741.06;345024;28;786;-77
2022/08/22 01:00:24;;;;;;;388.33;319.58;;;;;;;22.65;87.90;98731.38;344942;28;888;-77
2022/08/22 01:00:41;;;;;;;387.35;322.90;;;;;;;22.65;88.05;98740.22;343747;28;770;-77
2022/08/22 01:00:57;;;;;;;387.44;318.14;;;;;;;22.66;88.10;98731.22;340789;29;1138;-77
2022/08/22 01:01:09;;;;;;;387.80;320.70;;;;;;;22.67;87.58;98732.91;340698;28;1398;-77
2022/08/22 01:01:34;;;;;;;385.75;326.67;;;;;;;22.66;87.92;98736.56;341492;28;1442;-78
2022/08/22 01:02:13;;;;;;;382.35;315.25;;;;;;;22.66;87.54;98733.91;343864;28;1166;-78
2022/08/22 01:02:26;;;;;;;384.63;318.55;;;;;;;22.65;87.55;98726.91;342182;28;834;-78
2022/08/22 01:02:58;;;;;;;383.40;325.58;;;;;;;22.64;87.56;98735.88;342928;28;1077;-78
2022/08/22 01:03:47;;;;;;;378.50;305.42;;;;;;;22.65;87.58;98732.22;340925;29;1130;-78
2022/08/22 01:04:10;;;;;;;395.33;337.65;;;;;;;22.63;87.39;98734.22;335611;29;934;-78
2022/08/22 01:04:34;;;;;;;383.45;315.85;;;;;;;22.63;87.50;98728.88;336609;29;1958;-78
2022/08/22 01:05:05;;;;;;;386.65;318.10;;;;;;;22.63;87.97;98726.22;336837;29;883;-78
2022/08/22 01:05:57;;;;;;;381.05;307.38;;;;;;;22.63;87.93;98726.22;334331;29;1379;-78
2022/08/22 01:06:19;;;;;;;387.10;320.88;;;;;;;22.64;87.88;98729.72;330038;29;2088;-78
2022/08/22 01:07:08;;;;;;;385.02;319.30;;;;;;;22.64;87.71;98730.56;327911;30;1756;-78
2022/08/22 01:07:53;;;;;;;383.85;310.92;;;;;;;22.62;87.74;98726.38;327708;30;1777;-78
2022/08/22 01:08:32;;;;;;;381.15;311.08;;;;;;;22.59;87.70;98722.19;323629;30;2605;-78
2022/08/22 01:09:01;;;;;;;384.60;324.17;;;;;;;22.60;87.62;98718.53;321342;30;1078;-78
2022/08/22 01:09:21;;;;;;;384.17;330.70;;;;;;;22.61;87.88;98722.88;318756;31;1123;-78
2022/08/22 01:10:03;;;;;;;385.58;320.50;;;;;;;22.61;87.86;98722.88;319430;30;2543;-78
2022/08/22 01:10:32;;;;;;;385.17;321.05;;;;;;;22.61;87.85;98720.22;308182;32;3451;-78
2022/08/22 01:11:04;;;;;;;387.13;319.92;;;;;;;22.60;87.64;98721.19;305988;32;1452;-78
2022/08/22 01:11:29;;;;;;;384.33;321.23;;;;;;;22.63;87.71;98722.72;300200;32;2307;-78
2022/08/22 01:11:51;;;;;;;383.20;322.10;;;;;;;22.61;87.91;98725.53;295600;33;1061;-78
2022/08/22 01:12:23;;;;;;;384.80;321.17;;;;;;;22.58;88.29;98715.19;291443;33;4140;-78
2022/08/22 01:12:52;;;;;;;387.95;324.85;;;;;;;22.58;88.33;98732.03;289561;33;5086;-78
2022/08/22 01:13:20;;;;;;;383.45;310.95;;;;;;;22.57;87.88;98725.03;289155;34;5087;-78
2022/08/22 01:14:08;;;;;;;386.95;325.58;;;;;;;22.57;87.81;98730.34;283204;34;3663;-79
2022/08/22 01:14:48;;;;;;;392.75;332.30;;;;;;;22.53;87.58;98734.34;285221;34;6474;-78
2022/08/22 01:15:21;;;;;;;385.58;320.83;;;;;;;22.54;88.17;98730.69;283585;34;5750;-78
2022/08/22 01:15:34;;;;;;;389.73;338.33;;;;;;;22.54;87.98;98736.00;277279;35;5323;-78
2022/08/22 01:15:44;;;;;;;384.98;321.75;;;;;;;22.55;87.94;98736.84;275465;35;5833;-78
2022/08/22 01:16:03;;;;;;;385.10;318.63;;;;;;;22.55;87.79;98735.00;273444;36;1094;-78
2022/08/22 01:16:33;;;;;;;393.45;338.67;;;;;;;22.55;88.06;98731.50;272032;36;8386;-78
2022/08/22 01:16:53;;;;;;;387.20;326.83;;;;;;;22.57;87.42;98737.53;269422;36;8748;-78
2022/08/22 01:19:38;;;;;;;378.75;309.72;;;;;;;22.54;87.59;98740.50;2503380;27;20522;-77
2022/08/22 01:20:16;;;;;;;387.23;321.92;;;;;;;22.55;87.77;98747.53;354379;27;1446;-77
2022/08/22 01:20:51;;;;;;;388.52;331.95;;;;;;;22.55;88.20;98742.19;353238;28;1081;-77
2022/08/22 01:21:26;;;;;;;385.88;323.88;;;;;;;22.55;88.05;98742.19;352537;28;871;-77
2022/08/22 01:22:14;;;;;;;383.92;324.10;;;;;;;22.56;87.89;98749.19;349623;28;3936;-78
2022/08/22 01:22:39;;;;;;;386.98;314.67;;;;;;;22.56;88.09;98744.69;349022;28;1130;-78
2022/08/22 01:23:14;;;;;;;391.55;334.70;;;;;;;22.56;87.77;98749.19;349005;28;1039;-78
2022/08/22 01:23:57;;;;;;;385.40;326.65;;;;;;;22.57;87.79;98746.38;345863;28;1374;-78
2022/08/22 01:24:29;;;;;;;390.90;334.10;;;;;;;22.56;88.22;98744.69;343529;28;900;-79
2022/08/22 01:25:16;;;;;;;384.45;313.95;;;;;;;22.56;87.77;98746.53;346206;28;940;-78
2022/08/22 01:25:31;;;;;;;387.40;332.08;;;;;;;22.56;88.03;98746.53;345492;28;949;-77
2022/08/22 01:25:47;;;;;;;390.05;329.77;;;;;;;22.56;87.70;98746.53;343463;28;1607;-77
2022/08/22 01:26:25;;;;;;;388.98;322.15;;;;;;;22.54;87.86;98744.00;345115;28;1325;-77
2022/08/22 01:27:06;;;;;;;384.85;325.58;;;;;;;22.55;87.55;98752.84;341212;28;938;-77
2022/08/22 01:27:46;;;;;;;382.42;314.42;;;;;;;22.55;88.21;98750.19;341074;28;955;-77
2022/08/22 01:28:17;;;;;;;385.88;323.70;;;;;;;22.55;87.88;98758.19;337346;29;1423;-78
2022/08/22 01:28:43;;;;;;;384.48;320.15;;;;;;;22.56;87.90;98751.84;337784;29;1962;-78
2022/08/22 01:29:18;;;;;;;388.40;325.25;;;;;;;22.55;88.15;98752.84;335283;29;1370;-78
2022/08/22 01:29:53;;;;;;;392.25;323.75;;;;;;;22.55;88.04;98752.84;334895;29;1557;-78
2022/08/22 01:30:45;;;;;;;388.27;322.83;;;;;;;22.55;88.44;98752.84;336777;29;1900;-78
2022/08/22 01:31:23;;;;;;;386.83;330.33;;;;;;;22.55;88.13;98752.84;330454;29;2982;-78
2022/08/22 01:31:55;;;;;;;387.65;328.88;;;;;;;22.55;87.94;98748.34;330110;29;1809;-78
2022/08/22 01:32:21;;;;;;;393.80;333.75;;;;;;;22.55;88.02;98752.84;329001;30;1478;-78
2022/08/22 01:32:50;;;;;;;385.65;317.15;;;;;;;22.54;87.97;98749.34;328153;29;2576;-78
2022/08/22 01:33:21;;;;;;;383.02;313.65;;;;;;;22.53;88.00;98739.69;332016;29;1709;-78
2022/08/22 01:33:32;;;;;;;379.60;308.38;;;;;;;22.52;87.68;98747.88;328838;29;2083;-79
2022/08/22 01:34:01;;;;;;;379.23;298.40;;;;;;;22.52;87.87;98753.19;328560;29;2451;-79
2022/08/22 01:34:17;;;;;;;387.58;319.17;;;;;;;22.51;88.07;98748.88;327659;30;3332;-79
2022/08/22 01:34:53;;;;;;;386.02;317.10;;;;;;;22.51;87.82;98755.03;324898;30;4519;-79
2022/08/22 01:35:18;;;;;;;387.65;327.10;;;;;;;22.51;87.42;98752.38;324765;30;3026;-79
2022/08/22 01:35:28;;;;;;;390.33;334.90;;;;;;;22.51;87.56;98752.38;320049;30;2133;-77
2022/08/22 01:36:00;;;;;;;390.83;328.57;;;;;;;22.52;87.78;98753.19;318375;31;1341;-78
2022/08/22 01:36:19;;;;;;;389.95;331.02;;;;;;;22.52;87.79;98753.19;315477;31;3986;-79
2022/08/22 01:36:57;;;;;;;389.55;322.88;;;;;;;22.51;87.72;98752.38;314783;31;4494;-79
2022/08/22 01:37:13;;;;;;;387.38;330.17;;;;;;;22.51;88.33;98756.88;315345;31;863;-79
2022/08/22 01:37:49;;;;;;;387.30;325.65;;;;;;;22.51;88.25;98759.53;316492;31;1306;-79
2022/08/22 01:38:26;;;;;;;389.27;338.30;;;;;;;22.48;87.87;98750.00;308407;31;4249;-79
2022/08/22 01:38:59;;;;;;;390.23;345.75;;;;;;;22.49;87.82;98753.53;305512;32;1457;-79
2022/08/22 01:39:19;;;;;;;387.63;331.23;;;;;;;22.47;87.65;98750.19;299999;32;1867;-79
2022/08/22 01:39:47;;;;;;;390.23;340.10;;;;;;;22.48;87.66;98747.34;300776;32;6324;-79
2022/08/22 01:40:23;;;;;;;393.58;342.08;;;;;;;22.49;87.37;98745.53;303333;32;4576;-79
2022/08/22 01:40:37;;;;;;;392.13;333.40;;;;;;;22.47;87.31;98753.69;294923;33;7959;-79
2022/08/22 01:41:05;;;;;;;395.35;341.48;;;;;;;22.48;87.80;98746.50;296165;33;7816;-79
2022/08/22 01:41:42;;;;;;;388.90;327.05;;;;;;;22.48;87.47;98746.50;295084;33;10433;-79
2022/08/22 01:44:33;;;;;;;382.99;318.48;;;;;;;22.47;87.97;98740.34;2500168;27;20787;-77
2022/08/22 01:44:56;;;;;;;393.35;344.55;;;;;;;22.46;87.99;98732.50;353096;28;916;-77
2022/08/22 01:45:33;;;;;;;389.80;327.02;;;;;;;22.46;87.65;98738.66;351568;28;1867;-77
2022/08/22 01:46:02;;;;;;;392.13;340.58;;;;;;;22.45;87.61;98731.66;350153;28;971;-77
2022/08/22 01:46:38;;;;;;;385.63;312.95;;;;;;;22.44;87.85;98737.16;348992;28;951;-77
2022/08/22 01:46:58;;;;;;;396.33;349.02;;;;;;;22.44;87.78;98737.16;350255;28;1525;-77
2022/08/22 01:47:25;;;;;;;398.38;346.13;;;;;;;22.43;87.65;98738.16;351422;28;2874;-77
2022/08/22 01:47:38;;;;;;;396.35;332.50;;;;;;;22.45;87.91;98741.50;348670;28;3155;-78
2022/08/22 01:48:18;;;;;;;390.77;324.05;;;;;;;22.44;88.04;98734.50;347654;28;934;-77
2022/08/22 01:49:01;;;;;;;392.25;337.20;;;;;;;22.40;87.86;98735.81;342386;28;1285;-77
2022/08/22 01:49:17;;;;;;;390.98;345.00;;;;;;;22.39;88.21;98728.78;344783;28;1555;-77
2022/08/22 01:49:38;;;;;;;398.90;353.15;;;;;;;22.40;88.01;98733.13;343593;28;995;-77
2022/08/22 01:50:01;;;;;;;399.85;346.33;;;;;;;22.42;88.06;98742.66;342111;28;1121;-77
2022/08/22 01:50:22;;;;;;;399.13;345.00;;;;;;;22.42;87.77;98733.81;338137;29;1328;-78
2022/08/22 01:50:41;;;;;;;398.10;349.30;;;;;;;22.43;87.87;98735.47;338981;29;1408;-77
2022/08/22 01:51:12;;;;;;;397.63;350.75;;;;;;;22.42;87.92;98737.31;339470;29;1282;-77
2022/08/22 01:51:36;;;;;;;397.52;353.70;;;;;;;22.42;87.65;98729.31;336916;29;1463;-77
2022/08/22 01:51:50;;;;;;;389.30;320.38;;;;;;;22.42;88.18;98736.47;335523;29;1410;-77
2022/08/22 01:52:12;;;;;;;389.17;317.00;;;;;;;22.41;87.75;98732.97;337341;29;1319;-77
2022/08/22 01:52:45;;;;;;;391.95;345.58;;;;;;;22.40;88.36;98733.97;338202;29;889;-77
2022/08/22 01:53:02;;;;;;;390.70;339.30;;;;;;;22.39;87.84;98731.47;331535;29;1626;-77
2022/08/22 01:53:29;;;;;;;392.55;343.35;;;;;;;22.37;88.42;98738.78;331048;29;1970;-77
2022/08/22 01:54:01;;;;;;;389.58;330.10;;;;;;;22.36;88.39;98737.13;327323;30;1279;-77
2022/08/22 01:54:41;;;;;;;386.45;332.48;;;;;;;22.37;89.13;98736.97;328135;29;1474;-77
2022/08/22 01:55:07;;;;;;;399.58;355.45;;;;;;;22.34;88.85;98742.59;324608;30;907;-78
2022/08/22 01:55:28;;;;;;;394.77;351.10;;;;;;;22.35;88.59;98730.09;325980;30;2314;-78
2022/08/22 01:56:07;;;;;;;388.70;337.45;;;;;;;22.34;88.82;98739.94;323004;30;2190;-78
2022/08/22 01:56:22;;;;;;;401.66;350.02;;;;;;;22.34;88.27;98739.09;322155;30;2773;-79
2022/08/22 01:56:35;;;;;;;402.67;353.70;;;;;;;22.34;88.50;98739.94;321557;30;2242;-78
2022/08/22 01:56:45;;;;;;;401.35;347.50;;;;;;;22.35;88.34;98743.44;321579;30;3136;-77
2022/08/22 01:57:06;;;;;;;400.77;345.77;;;;;;;22.34;88.23;98742.59;318056;30;2639;-77
2022/08/22 01:57:17;;;;;;;394.63;336.65;;;;;;;22.34;88.00;98741.75;318059;30;2773;-77
2022/08/22 01:57:27;;;;;;;394.47;340.40;;;;;;;22.35;88.17;98738.09;316550;31;2795;-77
2022/08/22 01:57:51;;;;;;;398.60;354.30;;;;;;;22.37;88.62;98746.78;319719;30;1213;-77
2022/08/22 01:58:17;;;;;;;393.60;346.80;;;;;;;22.36;88.24;98742.44;313344;31;1462;-77
2022/08/22 01:58:29;;;;;;;399.75;355.67;;;;;;;22.37;88.04;98749.44;312356;31;2438;-77
2022/08/22 01:59:00;;;;;;;400.42;356.35;;;;;;;22.36;88.04;98742.44;309904;31;912;-78
2022/08/22 01:59:13;;;;;;;395.77;344.92;;;;;;;22.35;88.48;98746.09;303676;32;3386;-78
2022/08/22 01:59:33;;;;;;;391.55;332.20;;;;;;;22.35;87.94;98746.94;304134;32;1504;-77
2022/08/22 01:59:46;;;;;;;391.73;333.42;;;;;;;22.35;88.32;98746.09;303511;32;3473;-77
2022/08/22 02:00:20;;;;;;;397.58;350.80;;;;;;;22.35;87.70;98746.09;304703;32;2614;-77
2022/08/22 02:00:46;;;;;;;399.48;346.42;;;;;;;22.38;88.34;98741.28;301569;32;3251;-77
2022/08/22 02:01:05;;;;;;;397.63;337.90;;;;;;;22.38;88.26;98740.47;297164;33;4244;-77
2022/08/22 02:01:27;;;;;;;393.48;333.95;;;;;;;22.36;88.22;98743.28;297549;32;4860;-77
2022/08/22 02:02:02;;;;;;;400.38;350.98;;;;;;;22.37;88.17;98744.13;293998;33;1439;-77
2022/08/22 02:02:19;;;;;;;396.77;352.85;;;;;;;22.37;87.77;98744.13;293782;33;3570;-77
2022/08/22 02:02:43;;;;;;;396.40;347.33;;;;;;;22.38;88.34;98748.47;293163;33;3416;-77
2022/08/22 02:03:12;;;;;;;387.15;325.08;;;;;;;22.38;88.07;98745.78;293376;33;1582;-77
2022/08/22 02:03:23;;;;;;;399.52;350.83;;;;;;;22.36;88.35;98742.44;291134;33;1402;-77
2022/08/22 02:03:38;;;;;;;399.08;354.60;;;;;;;22.36;88.10;98750.44;291658;33;6570;-77
2022/08/22 02:04:05;;;;;;;395.15;351.48;;;;;;;22.36;88.26;98745.13;290156;33;6864;-77
2022/08/22 02:04:29;;;;;;;387.73;328.98;;;;;;;22.35;87.78;98746.94;284267;34;5932;-77
2022/08/22 02:04:46;;;;;;;390.98;337.08;;;;;;;22.36;87.92;98742.44;285382;34;1078;-77
2022/08/22 02:05:00;;;;;;;392.75;343.75;;;;;;;22.35;88.10;98752.28;282175;34;6944;-77
2022/08/22 02:05:24;;;;;;;397.15;351.10;;;;;;;22.36;88.14;98745.13;281944;34;8276;-77
2022/08/22 02:06:06;;;;;;;399.45;354.90;;;;;;;22.39;87.78;98747.47;279306;35;8932;-77
2022/08/22 02:08:04;;;;;;;384.34;323.49;;;;;;;22.35;87.69;98754.09;2495601;27;20494;-77
2022/08/22 02:08:21;;;;;;;396.58;349.23;;;;;;;22.35;88.31;98752.28;351705;28;1801;-77
2022/08/22 02:09:00;;;;;;;392.02;335.70;;;;;;;22.36;88.40;98750.44;348684;28;1531;-77
2022/08/22 02:09:37;;;;;;;388.05;323.20;;;;;;;22.36;88.44;98761.09;347524;28;974;-77
2022/08/22 02:09:55;;;;;;;393.23;344.30;;;;;;;22.35;88.22;98754.09;344778;28;1476;-77
2022/08/22 02:10:42;;;;;;;387.85;319.05;;;;;;;22.36;88.23;98755.78;345976;28;1360;-77
2022/08/22 02:11:02;;;;;;;392.88;341.58;;;;;;;22.35;88.11;98754.94;345028;28;1302;-77
2022/08/22 02:11:44;;;;;;;390.15;327.40;;;;;;;22.35;88.55;98754.94;344056;28;1412;-77
2022/08/22 02:11:59;;;;;;;396.13;339.15;;;;;;;22.35;88.56;98756.78;339357;29;1148;-78
2022/08/22 02:12:21;;;;;;;394.40;340.75;;;;;;;22.34;88.68;98755.09;341847;28;1300;-77
2022/08/22 02:13:01;;;;;;;382.05;321.13;;;;;;;22.35;88.39;98762.94;340102;29;1309;-77
2022/08/22 02:13:11;;;;;;;390.35;335.17;;;;;;;22.35;88.10;98751.44;343424;28;977;-77
2022/08/22 02:13:33;;;;;;;388.52;332.88;;;;;;;22.35;88.14;98760.28;342498;28;1217;-77